sensor_id;sensor_type;location;lat;lon;timestamp;pressure;altitude;pressure_sealevel;temperature;humidity
62976;BME280;49071;0.000;0.000;2023-05-11T05:17:20;100902.44;;;18.61;41.13
62976;BME280;49071;0.000;0.000;2023-05-11T05:20:20;100907.75;;;18.59;41.24
62976;BME280;49071;0.000;0.000;2023-05-11T05:23:21;100910.38;;;18.59;41.34
62976;BME280;49071;0.000;0.000;2023-05-11T05:26:21;100906.06;;;18.58;41.32
62976;BME280;49071;0.000;0.000;2023-05-11T05:29:21;100908.53;;;18.61;41.16
62976;BME280;49071;0.000;0.000;2023-05-11T05:32:21;100904.69;;;18.69;41.51
62976;BME280;49071;0.000;0.000;2023-05-11T05:35:21;100911.69;;;18.70;41.32
62976;BME280;49071;0.000;0.000;2023-05-11T05:38:22;100912.44;;;18.73;41.21
62976;BME280;49071;0.000;0.000;2023-05-11T05:41:22;100918.53;;;18.74;41.20
62976;BME280;49071;0.000;0.000;2023-05-11T05:44:22;100926.53;;;18.71;41.21
62976;BME280;49071;0.000;0.000;2023-05-11T05:47:23;100925.56;;;18.73;41.36
62976;BME280;49071;0.000;0.000;2023-05-11T05:50:23;100928.69;;;18.81;41.26
62976;BME280;49071;0.000;0.000;2023-05-11T05:53:23;100928.81;;;18.78;41.51
62976;BME280;49071;0.000;0.000;2023-05-11T05:56:23;100933.22;;;18.78;41.38
62976;BME280;49071;0.000;0.000;2023-05-11T05:59:23;100924.97;;;18.85;41.37
62976;BME280;49071;0.000;0.000;2023-05-11T06:02:23;100932.81;;;18.87;41.46
62976;BME280;49071;0.000;0.000;2023-05-11T06:05:24;100934.50;;;18.88;41.04
62976;BME280;49071;0.000;0.000;2023-05-11T06:08:24;100924.47;;;18.96;41.51
62976;BME280;49071;0.000;0.000;2023-05-11T06:11:25;100931.38;;;18.99;41.40
62976;BME280;49071;0.000;0.000;2023-05-11T06:14:25;100926.81;;;19.02;41.30
62976;BME280;49071;0.000;0.000;2023-05-11T06:17:25;100929.41;;;19.04;40.92
62976;BME280;49071;0.000;0.000;2023-05-11T06:20:27;100938.03;;;19.06;41.00
62976;BME280;49071;0.000;0.000;2023-05-11T06:23:27;100936.19;;;19.08;41.30
62976;BME280;49071;0.000;0.000;2023-05-11T06:26:27;100931.72;;;19.10;41.20
62976;BME280;49071;0.000;0.000;2023-05-11T06:29:27;100943.88;;;19.13;41.31
62976;BME280;49071;0.000;0.000;2023-05-11T06:32:27;100936.69;;;19.16;41.34
62976;BME280;49071;0.000;0.000;2023-05-11T06:35:28;100936.63;;;19.18;41.38
62976;BME280;49071;0.000;0.000;2023-05-11T06:38:29;100932.06;;;19.21;41.29
62976;BME280;49071;0.000;0.000;2023-05-11T06:41:30;100932.81;;;19.23;41.15
62976;BME280;49071;0.000;0.000;2023-05-11T06:44:30;100929.28;;;19.24;40.95
62976;BME280;49071;0.000;0.000;2023-05-11T06:47:30;100928.34;;;19.25;41.15
62976;BME280;49071;0.000;0.000;2023-05-11T06:50:30;100929.19;;;19.26;41.37
62976;BME280;49071;0.000;0.000;2023-05-11T06:53:30;100935.31;;;19.26;41.13
62976;BME280;49071;0.000;0.000;2023-05-11T06:56:32;100936.16;;;19.27;40.90
62976;BME280;49071;0.000;0.000;2023-05-11T06:59:33;100922.16;;;19.26;40.91
62976;BME280;49071;0.000;0.000;2023-05-11T07:02:33;100930.84;;;19.28;40.79
62976;BME280;49071;0.000;0.000;2023-05-11T07:05:34;100924.59;;;19.31;40.88
62976;BME280;49071;0.000;0.000;2023-05-11T07:08:34;100928.91;;;19.32;40.83
62976;BME280;49071;0.000;0.000;2023-05-11T07:11:34;100928.91;;;19.32;40.85
62976;BME280;49071;0.000;0.000;2023-05-11T07:14:35;100938.44;;;19.34;40.62
62976;BME280;49071;0.000;0.000;2023-05-11T07:17:35;100938.34;;;19.36;40.74
62976;BME280;49071;0.000;0.000;2023-05-11T07:20:36;100947.94;;;19.37;40.73
62976;BME280;49071;0.000;0.000;2023-05-11T07:23:36;100943.47;;;19.39;41.00
62976;BME280;49071;0.000;0.000;2023-05-11T07:26:36;100940.84;;;19.39;41.01
62976;BME280;49071;0.000;0.000;2023-05-11T07:29:36;100942.53;;;19.40;40.85
62976;BME280;49071;0.000;0.000;2023-05-11T07:32:36;100938.06;;;19.42;40.90
62976;BME280;49071;0.000;0.000;2023-05-11T07:35:37;100942.38;;;19.43;40.77
62976;BME280;49071;0.000;0.000;2023-05-11T07:38:37;100937.97;;;19.44;40.79
62976;BME280;49071;0.000;0.000;2023-05-11T07:41:38;100941.41;;;19.46;40.82
62976;BME280;49071;0.000;0.000;2023-05-11T07:44:38;100941.41;;;19.46;40.88
62976;BME280;49071;0.000;0.000;2023-05-11T07:47:38;100945.81;;;19.45;41.11
62976;BME280;49071;0.000;0.000;2023-05-11T07:50:39;100947.34;;;19.49;41.10
62976;BME280;49071;0.000;0.000;2023-05-11T07:53:40;100950.00;;;19.49;40.68
62976;BME280;49071;0.000;0.000;2023-05-11T07:56:40;100955.19;;;19.51;40.61
62976;BME280;49071;0.000;0.000;2023-05-11T07:59:41;100941.16;;;19.50;40.53
62976;BME280;49071;0.000;0.000;2023-05-11T08:02:41;100938.47;;;19.52;40.35
62976;BME280;49071;0.000;0.000;2023-05-11T08:05:41;100943.63;;;19.53;40.67
62976;BME280;49071;0.000;0.000;2023-05-11T08:08:41;100942.78;;;19.53;40.43
62976;BME280;49071;0.000;0.000;2023-05-11T08:11:42;100940.09;;;19.54;40.39
62976;BME280;49071;0.000;0.000;2023-05-11T08:14:42;100945.28;;;19.56;40.44
62976;BME280;49071;0.000;0.000;2023-05-11T08:17:42;100941.81;;;19.55;40.38
62976;BME280;49071;0.000;0.000;2023-05-11T08:20:44;100939.97;;;19.57;40.79
62976;BME280;49071;0.000;0.000;2023-05-11T08:23:45;100943.44;;;19.58;40.87
62976;BME280;49071;0.000;0.000;2023-05-11T08:26:45;100944.34;;;19.57;40.74
62976;BME280;49071;0.000;0.000;2023-05-11T08:29:46;100945.22;;;19.57;40.53
62976;BME280;49071;0.000;0.000;2023-05-11T08:32:46;100951.31;;;19.58;40.61
62976;BME280;49071;0.000;0.000;2023-05-11T08:35:46;100942.50;;;19.59;40.67
62976;BME280;49071;0.000;0.000;2023-05-11T08:38:46;100936.31;;;19.60;40.42
62976;BME280;49071;0.000;0.000;2023-05-11T08:41:48;100937.16;;;19.61;40.76
62976;BME280;49071;0.000;0.000;2023-05-11T08:44:48;100939.72;;;19.62;40.53
62976;BME280;49071;0.000;0.000;2023-05-11T08:47:49;100944.13;;;19.62;40.84
62976;BME280;49071;0.000;0.000;2023-05-11T08:50:49;100944.03;;;19.65;41.08
62976;BME280;49071;0.000;0.000;2023-05-11T08:53:49;100938.66;;;19.66;40.89
62976;BME280;49071;0.000;0.000;2023-05-11T08:56:51;100948.25;;;19.67;40.80
62976;BME280;49071;0.000;0.000;2023-05-11T08:59:53;100940.34;;;19.67;40.90
62976;BME280;49071;0.000;0.000;2023-05-11T09:02:54;100935.03;;;19.69;40.67
62976;BME280;49071;0.000;0.000;2023-05-11T09:05:54;100942.94;;;19.69;40.90
62976;BME280;49071;0.000;0.000;2023-05-11T09:08:55;100932.09;;;19.75;40.38
62976;BME280;49071;0.000;0.000;2023-05-11T09:11:57;100935.72;;;19.72;40.32
62976;BME280;49071;0.000;0.000;2023-05-11T09:14:58;100927.00;;;19.72;40.57
62976;BME280;49071;0.000;0.000;2023-05-11T09:17:58;100930.53;;;19.71;40.23
62976;BME280;49071;0.000;0.000;2023-05-11T09:20:59;100943.88;;;19.68;40.44
62976;BME280;49071;0.000;0.000;2023-05-11T09:23:59;100940.31;;;19.69;40.45
62976;BME280;49071;0.000;0.000;2023-05-11T09:27:07;100935.78;;;19.71;40.22
62976;BME280;49071;0.000;0.000;2023-05-11T09:30:15;100926.16;;;19.71;40.67
62976;BME280;49071;0.000;0.000;2023-05-11T09:33:22;100933.25;;;19.69;40.29
62976;BME280;49071;0.000;0.000;2023-05-11T09:36:25;100930.00;;;19.64;40.44
62976;BME280;49071;0.000;0.000;2023-05-11T09:39:32;100928.28;;;19.63;40.80
62976;BME280;49071;0.000;0.000;2023-05-11T09:42:35;100938.09;;;19.59;40.65
62976;BME280;49071;0.000;0.000;2023-05-11T09:45:42;100932.66;;;19.63;40.38
62976;BME280;49071;0.000;0.000;2023-05-11T09:48:43;100929.19;;;19.62;40.96
62976;BME280;49071;0.000;0.000;2023-05-11T09:51:43;100936.38;;;19.58;40.70
62976;BME280;49071;0.000;0.000;2023-05-11T09:54:44;100932.06;;;19.57;40.76
62976;BME280;49071;0.000;0.000;2023-05-11T09:57:51;100928.56;;;19.57;40.84
62976;BME280;49071;0.000;0.000;2023-05-11T10:00:52;100933.75;;;19.58;40.61
62976;BME280;49071;0.000;0.000;2023-05-11T10:03:52;100934.50;;;19.61;40.56
62976;BME280;49071;0.000;0.000;2023-05-11T10:06:53;100930.13;;;19.61;40.62
62976;BME280;49071;0.000;0.000;2023-05-11T10:09:54;100930.03;;;19.63;40.53
62976;BME280;49071;0.000;0.000;2023-05-11T10:12:55;100924.88;;;19.61;40.87
62976;BME280;49071;0.000;0.000;2023-05-11T10:15:56;100923.09;;;19.62;40.63
62976;BME280;49071;0.000;0.000;2023-05-11T10:18:58;100921.28;;;19.62;40.73
62976;BME280;49071;0.000;0.000;2023-05-11T10:21:58;100921.28;;;19.62;40.56
62976;BME280;49071;0.000;0.000;2023-05-11T10:24:59;100921.28;;;19.62;40.98
62976;BME280;49071;0.000;0.000;2023-05-11T10:28:00;100916.88;;;19.63;40.76
62976;BME280;49071;0.000;0.000;2023-05-11T10:31:01;100922.25;;;19.61;40.55
62976;BME280;49071;0.000;0.000;2023-05-11T10:34:02;100916.09;;;19.61;40.60
62976;BME280;49071;0.000;0.000;2023-05-11T10:37:03;100912.72;;;19.58;41.03
62976;BME280;49071;0.000;0.000;2023-05-11T10:40:04;100913.69;;;19.56;40.91
62976;BME280;49071;0.000;0.000;2023-05-11T10:46:29;100925.22;;;19.53;40.60
62976;BME280;49071;0.000;0.000;2023-05-11T10:49:45;100925.22;;;19.53;40.57
62976;BME280;49071;0.000;0.000;2023-05-11T10:59:28;100914.78;;;19.52;40.72
62976;BME280;49071;0.000;0.000;2023-05-11T11:02:31;100909.53;;;19.52;40.82
62976;BME280;49071;0.000;0.000;2023-05-11T11:05:35;100916.56;;;19.51;40.61
62976;BME280;49071;0.000;0.000;2023-05-11T11:08:56;100913.09;;;19.51;40.52
62976;BME280;49071;0.000;0.000;2023-05-11T11:11:57;100914.84;;;19.50;40.58
62976;BME280;49071;0.000;0.000;2023-05-11T11:15:07;100921.91;;;19.50;40.64
62976;BME280;49071;0.000;0.000;2023-05-11T11:18:26;100918.50;;;19.48;40.66
62976;BME280;49071;0.000;0.000;2023-05-11T11:21:40;100917.66;;;19.47;40.66
62976;BME280;49071;0.000;0.000;2023-05-11T11:24:41;100921.19;;;19.46;40.51
62976;BME280;49071;0.000;0.000;2023-05-11T11:30:42;100930.50;;;19.53;40.58
62976;BME280;49071;0.000;0.000;2023-05-11T11:33:42;100919.91;;;19.55;40.26
62976;BME280;49071;0.000;0.000;2023-05-11T11:39:54;100924.09;;;19.59;40.19
62976;BME280;49071;0.000;0.000;2023-05-11T11:43:08;100915.34;;;19.58;40.22
62976;BME280;49071;0.000;0.000;2023-05-11T11:46:08;100921.59;;;19.56;40.06
62976;BME280;49071;0.000;0.000;2023-05-11T11:49:08;100911.91;;;19.56;40.19
62976;BME280;49071;0.000;0.000;2023-05-11T11:52:12;100916.28;;;19.57;40.00
62976;BME280;49071;0.000;0.000;2023-05-11T11:55:14;100916.34;;;19.56;40.38
62976;BME280;49071;0.000;0.000;2023-05-11T12:01:39;100925.16;;;19.55;40.22
62976;BME280;49071;0.000;0.000;2023-05-11T12:04:43;100918.19;;;19.54;40.36
62976;BME280;49071;0.000;0.000;2023-05-11T12:07:47;100919.13;;;19.53;40.21
62976;BME280;49071;0.000;0.000;2023-05-11T12:10:52;100920.91;;;19.52;40.16
62976;BME280;49071;0.000;0.000;2023-05-11T12:13:53;100920.06;;;19.52;40.27
62976;BME280;49071;0.000;0.000;2023-05-11T12:17:00;100922.69;;;19.52;40.16
62976;BME280;49071;0.000;0.000;2023-05-11T12:20:10;100921.84;;;19.51;40.42
62976;BME280;49071;0.000;0.000;2023-05-11T12:23:11;100919.22;;;19.51;40.19
62976;BME280;49071;0.000;0.000;2023-05-11T12:26:13;100916.56;;;19.51;40.12
62976;BME280;49071;0.000;0.000;2023-05-11T12:29:18;100920.09;;;19.50;40.44
62976;BME280;49071;0.000;0.000;2023-05-11T12:32:25;100914.00;;;19.50;40.17
62976;BME280;49071;0.000;0.000;2023-05-11T12:35:27;100919.22;;;19.51;40.17
62976;BME280;49071;0.000;0.000;2023-05-11T12:38:28;100913.09;;;19.51;40.04
62976;BME280;49071;0.000;0.000;2023-05-11T12:41:28;100920.09;;;19.50;40.27
62976;BME280;49071;0.000;0.000;2023-05-11T12:44:29;100918.34;;;19.51;40.27
62976;BME280;49071;0.000;0.000;2023-05-11T12:47:29;100917.56;;;19.49;40.38
62976;BME280;49071;0.000;0.000;2023-05-11T12:50:30;100909.69;;;19.49;40.10
62976;BME280;49071;0.000;0.000;2023-05-11T12:53:33;100914.94;;;19.49;40.01
62976;BME280;49071;0.000;0.000;2023-05-11T12:56:48;100908.84;;;19.48;40.15
62976;BME280;49071;0.000;0.000;2023-05-11T12:59:48;100911.47;;;19.48;40.10
62976;BME280;49071;0.000;0.000;2023-05-11T13:02:52;100909.69;;;19.49;40.15
62976;BME280;49071;0.000;0.000;2023-05-11T13:06:06;100910.63;;;19.48;40.07
62976;BME280;49071;0.000;0.000;2023-05-11T13:09:07;100904.50;;;19.47;40.23
62976;BME280;49071;0.000;0.000;2023-05-11T13:12:16;100911.53;;;19.47;40.11
62976;BME280;49071;0.000;0.000;2023-05-11T13:15:17;100907.19;;;19.46;40.20
62976;BME280;49071;0.000;0.000;2023-05-11T13:18:18;100904.56;;;19.46;39.84
62976;BME280;49071;0.000;0.000;2023-05-11T13:21:18;100906.25;;;19.47;40.12
62976;BME280;49071;0.000;0.000;2023-05-11T13:24:19;100908.97;;;19.45;39.92
62976;BME280;49071;0.000;0.000;2023-05-11T13:27:19;100916.03;;;19.45;39.99
62976;BME280;49071;0.000;0.000;2023-05-11T13:30:20;100905.50;;;19.45;40.04
62976;BME280;49071;0.000;0.000;2023-05-11T13:33:20;100902.88;;;19.45;39.99
62976;BME280;49071;0.000;0.000;2023-05-11T13:36:21;100908.97;;;19.45;40.15
62976;BME280;49071;0.000;0.000;2023-05-11T13:39:21;100901.94;;;19.46;40.05
62976;BME280;49071;0.000;0.000;2023-05-11T13:42:21;100907.19;;;19.46;40.19
62976;BME280;49071;0.000;0.000;2023-05-11T13:45:22;100907.19;;;19.46;40.15
62976;BME280;49071;0.000;0.000;2023-05-11T13:48:22;100904.50;;;19.47;40.00
62976;BME280;49071;0.000;0.000;2023-05-11T13:51:22;100905.41;;;19.46;39.94
62976;BME280;49071;0.000;0.000;2023-05-11T13:54:22;100909.81;;;19.46;39.74
62976;BME280;49071;0.000;0.000;2023-05-11T13:57:23;100905.41;;;19.46;39.78
62976;BME280;49071;0.000;0.000;2023-05-11T14:00:23;100903.63;;;19.47;39.85
62976;BME280;49071;0.000;0.000;2023-05-11T14:03:23;100900.16;;;19.46;39.91
62976;BME280;49071;0.000;0.000;2023-05-11T14:06:23;100894.03;;;19.46;39.97
62976;BME280;49071;0.000;0.000;2023-05-11T14:09:24;100897.53;;;19.46;39.97
62976;BME280;49071;0.000;0.000;2023-05-11T14:12:25;100899.31;;;19.46;40.01
62976;BME280;49071;0.000;0.000;2023-05-11T14:15:25;100895.72;;;19.47;40.17
62976;BME280;49071;0.000;0.000;2023-05-11T14:18:25;100894.88;;;19.46;39.84
62976;BME280;49071;0.000;0.000;2023-05-11T14:21:26;100887.84;;;19.47;40.05
62976;BME280;49071;0.000;0.000;2023-05-11T14:24:26;100891.34;;;19.47;39.87
62976;BME280;49071;0.000;0.000;2023-05-11T14:27:26;100893.09;;;19.47;40.07
62976;BME280;49071;0.000;0.000;2023-05-11T14:30:26;100892.25;;;19.46;40.08
62976;BME280;49071;0.000;0.000;2023-05-11T14:33:27;100891.41;;;19.46;39.90
62976;BME280;49071;0.000;0.000;2023-05-11T14:36:27;100888.78;;;19.46;39.94
62976;BME280;49071;0.000;0.000;2023-05-11T14:39:27;100895.81;;;19.45;39.71
62976;BME280;49071;0.000;0.000;2023-05-11T14:42:27;100896.69;;;19.46;39.81
62976;BME280;49071;0.000;0.000;2023-05-11T14:45:28;100892.34;;;19.45;39.98
62976;BME280;49071;0.000;0.000;2023-05-11T14:48:28;100890.56;;;19.45;39.74
62976;BME280;49071;0.000;0.000;2023-05-11T14:51:28;100894.03;;;19.46;40.06
62976;BME280;49071;0.000;0.000;2023-05-11T14:54:29;100896.75;;;19.44;39.67
62976;BME280;49071;0.000;0.000;2023-05-11T14:57:29;100890.63;;;19.44;39.92
62976;BME280;49071;0.000;0.000;2023-05-11T15:00:29;100891.50;;;19.44;39.93
62976;BME280;49071;0.000;0.000;2023-05-11T15:03:30;100887.00;;;19.46;39.96
62976;BME280;49071;0.000;0.000;2023-05-11T15:06:30;100892.34;;;19.45;40.06
62976;BME280;49071;0.000;0.000;2023-05-11T15:09:30;100894.13;;;19.44;39.80
62976;BME280;49071;0.000;0.000;2023-05-11T15:12:31;100901.16;;;19.44;39.75
62976;BME280;49071;0.000;0.000;2023-05-11T15:15:31;100906.41;;;19.44;39.80
62976;BME280;49071;0.000;0.000;2023-05-11T15:18:31;100904.56;;;19.46;40.19
62976;BME280;49071;0.000;0.000;2023-05-11T15:21:31;100909.81;;;19.46;40.34
62976;BME280;49071;0.000;0.000;2023-05-11T15:24:31;100916.03;;;19.45;40.72
62976;BME280;49071;0.000;0.000;2023-05-11T15:27:32;100912.53;;;19.44;40.55
62976;BME280;49071;0.000;0.000;2023-05-11T15:30:33;100916.94;;;19.44;40.62
62976;BME280;49071;0.000;0.000;2023-05-11T15:33:33;100920.44;;;19.44;40.71
62976;BME280;49071;0.000;0.000;2023-05-11T15:36:33;100914.31;;;19.44;40.59
62976;BME280;49071;0.000;0.000;2023-05-11T15:39:33;100909.03;;;19.44;40.81
62976;BME280;49071;0.000;0.000;2023-05-11T15:42:33;100911.59;;;19.45;40.24
62976;BME280;49071;0.000;0.000;2023-05-11T15:45:34;100923.06;;;19.44;40.72
62976;BME280;49071;0.000;0.000;2023-05-11T15:48:34;100921.19;;;19.46;40.73
62976;BME280;49071;0.000;0.000;2023-05-11T15:51:34;100919.41;;;19.47;40.95
62976;BME280;49071;0.000;0.000;2023-05-11T15:54:35;100919.41;;;19.47;40.73
62976;BME280;49071;0.000;0.000;2023-05-11T15:57:36;100922.03;;;19.47;40.99
62976;BME280;49071;0.000;0.000;2023-05-11T16:00:37;100922.91;;;19.47;41.30
62976;BME280;49071;0.000;0.000;2023-05-11T16:03:37;100920.19;;;19.49;41.48
62976;BME280;49071;0.000;0.000;2023-05-11T16:06:37;100924.53;;;19.50;41.50
62976;BME280;49071;0.000;0.000;2023-05-11T16:09:38;100929.78;;;19.50;41.76
62976;BME280;49071;0.000;0.000;2023-05-11T16:12:38;100930.50;;;19.53;42.18
62976;BME280;49071;0.000;0.000;2023-05-11T16:15:38;100937.47;;;19.54;42.19
62976;BME280;49071;0.000;0.000;2023-05-11T16:18:38;100925.22;;;19.53;42.36
62976;BME280;49071;0.000;0.000;2023-05-11T16:21:39;100931.34;;;19.54;42.25
62976;BME280;49071;0.000;0.000;2023-05-11T16:24:39;100934.84;;;19.54;42.89
62976;BME280;49071;0.000;0.000;2023-05-11T16:27:39;100928.69;;;19.54;42.68
62976;BME280;49071;0.000;0.000;2023-05-11T16:30:40;100933.06;;;19.55;42.79
62976;BME280;49071;0.000;0.000;2023-05-11T16:33:40;100927.72;;;19.56;43.05
62976;BME280;49071;0.000;0.000;2023-05-11T16:36:40;100930.28;;;19.58;43.11
62976;BME280;49071;0.000;0.000;2023-05-11T16:39:40;100930.28;;;19.58;42.98
62976;BME280;49071;0.000;0.000;2023-05-11T16:42:40;100932.91;;;19.58;42.51
62976;BME280;49071;0.000;0.000;2023-05-11T16:45:41;100930.28;;;19.58;42.58
62976;BME280;49071;0.000;0.000;2023-05-11T16:48:42;100928.56;;;19.57;42.75
62976;BME280;49071;0.000;0.000;2023-05-11T16:51:42;100929.44;;;19.57;42.81
62976;BME280;49071;0.000;0.000;2023-05-11T16:54:42;100926.88;;;19.56;42.54
62976;BME280;49071;0.000;0.000;2023-05-11T16:57:42;100933.06;;;19.55;43.23
62976;BME280;49071;0.000;0.000;2023-05-11T17:00:43;100938.31;;;19.55;42.89
62976;BME280;49071;0.000;0.000;2023-05-11T17:03:43;100932.13;;;19.56;42.84
62976;BME280;49071;0.000;0.000;2023-05-11T17:06:43;100939.16;;;19.55;43.04
62976;BME280;49071;0.000;0.000;2023-05-11T17:09:43;100939.16;;;19.55;43.22
62976;BME280;49071;0.000;0.000;2023-05-11T17:12:44;100941.72;;;19.57;42.71
62976;BME280;49071;0.000;0.000;2023-05-11T17:15:44;100940.94;;;19.55;43.15
62976;BME280;49071;0.000;0.000;2023-05-11T17:18:46;100939.06;;;19.57;42.87
62976;BME280;49071;0.000;0.000;2023-05-11T17:21:46;100945.22;;;19.57;42.91
62976;BME280;49071;0.000;0.000;2023-05-11T17:24:46;100943.44;;;19.58;43.24
62976;BME280;49071;0.000;0.000;2023-05-11T17:27:46;100942.50;;;19.59;43.20
62976;BME280;49071;0.000;0.000;2023-05-11T17:30:50;100945.97;;;19.59;43.22
62976;BME280;49071;0.000;0.000;2023-05-11T17:33:53;100940.72;;;19.59;43.78
62976;BME280;49071;0.000;0.000;2023-05-11T17:36:54;100952.09;;;19.60;43.19
62976;BME280;49071;0.000;0.000;2023-05-11T17:39:54;100949.44;;;19.60;43.69
62976;BME280;49071;0.000;0.000;2023-05-11T17:42:55;100955.56;;;19.61;43.98
62976;BME280;49071;0.000;0.000;2023-05-11T17:45:55;100959.94;;;19.62;43.40
62976;BME280;49071;0.000;0.000;2023-05-11T17:48:55;100958.28;;;19.59;43.64
62976;BME280;49071;0.000;0.000;2023-05-11T17:51:56;100958.78;;;19.67;43.73
62976;BME280;49071;0.000;0.000;2023-05-11T17:54:57;100960.41;;;19.70;43.56
62976;BME280;49071;0.000;0.000;2023-05-11T17:57:57;100966.53;;;19.70;43.75
62976;BME280;49071;0.000;0.000;2023-05-11T18:00:57;100973.44;;;19.73;43.77
62976;BME280;49071;0.000;0.000;2023-05-11T18:03:58;100971.63;;;19.73;43.59
62976;BME280;49071;0.000;0.000;2023-05-11T18:06:59;100975.91;;;19.76;43.59
62976;BME280;49071;0.000;0.000;2023-05-11T18:09:59;100977.59;;;19.77;43.52
62976;BME280;49071;0.000;0.000;2023-05-11T18:12:59;100977.59;;;19.77;43.35
62976;BME280;49071;0.000;0.000;2023-05-11T18:15:59;100979.25;;;19.79;43.65
62976;BME280;49071;0.000;0.000;2023-05-11T18:19:00;100984.50;;;19.79;43.48
62976;BME280;49071;0.000;0.000;2023-05-11T18:22:00;100980.19;;;19.78;43.74
62976;BME280;49071;0.000;0.000;2023-05-11T18:25:00;100978.44;;;19.77;43.52
62976;BME280;49071;0.000;0.000;2023-05-11T18:28:01;100978.44;;;19.77;43.49
62976;BME280;49071;0.000;0.000;2023-05-11T18:31:02;100984.75;;;19.75;43.44
62976;BME280;49071;0.000;0.000;2023-05-11T18:34:02;100988.28;;;19.74;43.52
62976;BME280;49071;0.000;0.000;2023-05-11T18:37:03;100989.06;;;19.76;43.61
62976;BME280;49071;0.000;0.000;2023-05-11T18:40:03;100996.03;;;19.77;43.54
62976;BME280;49071;0.000;0.000;2023-05-11T18:43:06;101003.16;;;19.75;43.82
62976;BME280;49071;0.000;0.000;2023-05-11T18:46:07;101005.81;;;19.75;43.71
62976;BME280;49071;0.000;0.000;2023-05-11T18:49:07;101012.84;;;19.74;43.70
62976;BME280;49071;0.000;0.000;2023-05-11T18:52:07;101015.53;;;19.73;43.62
62976;BME280;49071;0.000;0.000;2023-05-11T18:55:08;101016.38;;;19.73;43.94
62976;BME280;49071;0.000;0.000;2023-05-11T18:58:09;101021.72;;;19.72;43.80
62976;BME280;49071;0.000;0.000;2023-05-11T19:01:09;101023.44;;;19.73;43.98
62976;BME280;49071;0.000;0.000;2023-05-11T19:04:09;101036.59;;;19.73;43.84
62976;BME280;49071;0.000;0.000;2023-05-11T19:07:10;101036.34;;;19.77;43.57
62976;BME280;49071;0.000;0.000;2023-05-11T19:10:10;101044.19;;;19.79;43.61
62976;BME280;49071;0.000;0.000;2023-05-11T19:13:10;101042.34;;;19.81;43.72
62976;BME280;49071;0.000;0.000;2023-05-11T19:16:11;101045.84;;;19.81;43.89
62976;BME280;49071;0.000;0.000;2023-05-11T19:19:12;101043.91;;;19.85;43.81
62976;BME280;49071;0.000;0.000;2023-05-11T19:22:12;101053.63;;;19.83;43.62
62976;BME280;49071;0.000;0.000;2023-05-11T19:25:12;101051.84;;;19.84;43.85
62976;BME280;49071;0.000;0.000;2023-05-11T19:28:12;101053.50;;;19.86;43.69
62976;BME280;49071;0.000;0.000;2023-05-11T19:31:12;101058.84;;;19.85;44.06
62976;BME280;49071;0.000;0.000;2023-05-11T19:34:13;101061.41;;;19.86;44.09
62976;BME280;49071;0.000;0.000;2023-05-11T19:37:13;101067.50;;;19.87;44.16
62976;BME280;49071;0.000;0.000;2023-05-11T19:40:13;101072.78;;;19.87;44.08
62976;BME280;49071;0.000;0.000;2023-05-11T19:43:15;101074.47;;;19.88;44.00
62976;BME280;49071;0.000;0.000;2023-05-11T19:46:15;101075.19;;;19.91;43.69
62976;BME280;49071;0.000;0.000;2023-05-11T19:49:15;101070.13;;;19.87;44.19
